sensor_id;sensor_type;location;lat;lon;timestamp;pressure;altitude;pressure_sealevel;temperature;humidity
55070;BME280;40967;52.070;8.596;2023-05-03T00:00:13;101761.81;;;6.87;67.33
55070;BME280;40967;52.070;8.596;2023-05-03T00:02:40;101771.78;;;6.86;66.89
55070;BME280;40967;52.070;8.596;2023-05-03T00:05:09;101766.00;;;6.83;67.20
55070;BME280;40967;52.070;8.596;2023-05-03T00:07:37;101767.25;;;6.80;67.65
55070;BME280;40967;52.070;8.596;2023-05-03T00:10:02;101766.88;;;6.77;67.79
55070;BME280;40967;52.070;8.596;2023-05-03T00:12:28;101751.78;;;6.63;67.90
55070;BME280;40967;52.070;8.596;2023-05-03T00:14:54;101760.69;;;6.63;67.97
55070;BME280;40967;52.070;8.596;2023-05-03T00:17:19;101754.06;;;6.59;67.81
55070;BME280;40967;52.070;8.596;2023-05-03T00:19:44;101745.63;;;6.49;68.24
55070;BME280;40967;52.070;8.596;2023-05-03T00:22:10;101758.44;;;6.54;67.71
55070;BME280;40967;52.070;8.596;2023-05-03T00:24:36;101763.44;;;6.50;68.25
55070;BME280;40967;52.070;8.596;2023-05-03T00:27:03;101767.59;;;6.46;68.33
55070;BME280;40967;52.070;8.596;2023-05-03T00:29:28;101768.00;;;6.43;68.62
55070;BME280;40967;52.070;8.596;2023-05-03T00:31:54;101764.28;;;6.38;68.57
55070;BME280;40967;52.070;8.596;2023-05-03T00:34:19;101774.28;;;6.37;68.52
55070;BME280;40967;52.070;8.596;2023-05-03T00:36:44;101763.91;;;6.28;69.27
55070;BME280;40967;52.070;8.596;2023-05-03T00:39:10;101770.56;;;6.19;69.46
55070;BME280;40967;52.070;8.596;2023-05-03T00:41:38;101764.97;;;6.14;69.84
55070;BME280;40967;52.070;8.596;2023-05-03T00:44:03;101763.53;;;6.11;69.83
55070;BME280;40967;52.070;8.596;2023-05-03T00:46:29;101769.34;;;6.08;69.78
55070;BME280;40967;52.070;8.596;2023-05-03T00:48:55;101758.78;;;6.07;70.29
55070;BME280;40967;52.070;8.596;2023-05-03T00:51:21;101761.06;;;6.03;69.43
55070;BME280;40967;52.070;8.596;2023-05-03T00:53:46;101762.94;;;6.03;70.34
55070;BME280;40967;52.070;8.596;2023-05-03T00:56:15;101757.94;;;6.00;69.69
55070;BME280;40967;52.070;8.596;2023-05-03T00:58:44;101748.63;;;5.89;69.41
55070;BME280;40967;52.070;8.596;2023-05-03T01:01:09;101756.72;;;5.89;69.65
55070;BME280;40967;52.070;8.596;2023-05-03T01:03:38;101764.38;;;5.86;69.98
55070;BME280;40967;52.070;8.596;2023-05-03T01:09:16;101772.47;;;5.66;70.35
55070;BME280;40967;52.070;8.596;2023-05-03T01:14:35;101765.59;;;5.44;71.72
55070;BME280;40967;52.070;8.596;2023-05-03T01:17:11;101757.09;;;5.40;71.49
55070;BME280;40967;52.070;8.596;2023-05-03T01:19:44;101748.22;;;5.33;71.83
55070;BME280;40967;52.070;8.596;2023-05-03T01:27:31;101756.03;;;5.22;71.82
55070;BME280;40967;52.070;8.596;2023-05-03T01:29:57;101770.97;;;5.24;72.04
55070;BME280;40967;52.070;8.596;2023-05-03T01:32:31;101773.03;;;5.22;71.80
55070;BME280;40967;52.070;8.596;2023-05-03T01:35:10;101775.94;;;5.21;71.76
55070;BME280;40967;52.070;8.596;2023-05-03T01:37:36;101761.84;;;5.12;71.21
55070;BME280;40967;52.070;8.596;2023-05-03T01:40:02;101766.16;;;5.07;71.86
55070;BME280;40967;52.070;8.596;2023-05-03T01:42:36;101769.03;;;4.99;72.35
55070;BME280;40967;52.070;8.596;2023-05-03T01:45:03;101763.41;;;4.94;72.91
55070;BME280;40967;52.070;8.596;2023-05-03T01:47:29;101778.91;;;4.85;73.20
55070;BME280;40967;52.070;8.596;2023-05-03T01:49:55;101771.03;;;4.77;73.75
55070;BME280;40967;52.070;8.596;2023-05-03T01:52:21;101771.22;;;4.69;74.49
55070;BME280;40967;52.070;8.596;2023-05-03T01:54:47;101768.09;;;4.66;74.11
55070;BME280;40967;52.070;8.596;2023-05-03T01:57:12;101766.59;;;4.56;74.57
55070;BME280;40967;52.070;8.596;2023-05-03T01:59:37;101775.22;;;4.45;75.51
55070;BME280;40967;52.070;8.596;2023-05-03T02:02:03;101774.56;;;4.37;75.94
55070;BME280;40967;52.070;8.596;2023-05-03T02:04:28;101779.50;;;4.33;76.17
55070;BME280;40967;52.070;8.596;2023-05-03T02:06:54;101781.75;;;4.30;76.03
55070;BME280;40967;52.070;8.596;2023-05-03T02:09:19;101787.34;;;4.28;76.10
55070;BME280;40967;52.070;8.596;2023-05-03T02:11:45;101785.47;;;4.29;75.88
55070;BME280;40967;52.070;8.596;2023-05-03T02:14:10;101791.22;;;4.26;76.03
55070;BME280;40967;52.070;8.596;2023-05-03T02:16:36;101789.78;;;4.23;76.05
55070;BME280;40967;52.070;8.596;2023-05-03T02:19:02;101787.06;;;4.17;76.14
55070;BME280;40967;52.070;8.596;2023-05-03T02:21:27;101773.81;;;4.15;76.07
55070;BME280;40967;52.070;8.596;2023-05-03T02:23:52;101780.00;;;4.16;76.22
55070;BME280;40967;52.070;8.596;2023-05-03T02:26:18;101773.63;;;4.17;76.00
55070;BME280;40967;52.070;8.596;2023-05-03T02:28:44;101783.34;;;4.18;75.83
55070;BME280;40967;52.070;8.596;2023-05-03T02:31:09;101785.16;;;4.11;75.87
55070;BME280;40967;52.070;8.596;2023-05-03T02:33:35;101789.19;;;4.00;76.87
55070;BME280;40967;52.070;8.596;2023-05-03T02:36:00;101796.78;;;3.90;77.64
55070;BME280;40967;52.070;8.596;2023-05-03T02:38:26;101794.28;;;3.89;77.68
55070;BME280;40967;52.070;8.596;2023-05-03T02:40:51;101789.31;;;3.86;77.28
55070;BME280;40967;52.070;8.596;2023-05-03T02:43:17;101799.25;;;3.92;76.89
55070;BME280;40967;52.070;8.596;2023-05-03T02:45:42;101798.44;;;3.91;76.44
55070;BME280;40967;52.070;8.596;2023-05-03T02:48:08;101800.66;;;3.88;76.20
55070;BME280;40967;52.070;8.596;2023-05-03T02:50:34;101806.69;;;3.90;76.45
55070;BME280;40967;52.070;8.596;2023-05-03T02:52:59;101811.03;;;3.91;76.38
55070;BME280;40967;52.070;8.596;2023-05-03T02:55:28;101811.66;;;3.93;76.24
55070;BME280;40967;52.070;8.596;2023-05-03T02:57:53;101814.16;;;3.94;75.68
55070;BME280;40967;52.070;8.596;2023-05-03T03:00:19;101800.06;;;3.86;75.63
55070;BME280;40967;52.070;8.596;2023-05-03T03:02:44;101815.97;;;3.87;75.64
55070;BME280;40967;52.070;8.596;2023-05-03T03:05:10;101824.38;;;3.84;75.45
55070;BME280;40967;52.070;8.596;2023-05-03T03:07:38;101818.56;;;3.81;75.02
55070;BME280;40967;52.070;8.596;2023-05-03T03:10:05;101812.41;;;3.80;75.30
55070;BME280;40967;52.070;8.596;2023-05-03T03:12:31;101819.16;;;3.76;75.23
55070;BME280;40967;52.070;8.596;2023-05-03T03:14:57;101810.91;;;3.78;75.43
55070;BME280;40967;52.070;8.596;2023-05-03T03:17:22;101805.09;;;3.74;74.88
55070;BME280;40967;52.070;8.596;2023-05-03T03:19:48;101812.50;;;3.72;74.80
55070;BME280;40967;52.070;8.596;2023-05-03T03:22:13;101810.22;;;3.69;75.20
55070;BME280;40967;52.070;8.596;2023-05-03T03:24:38;101801.72;;;3.66;74.96
55070;BME280;40967;52.070;8.596;2023-05-03T03:27:04;101807.09;;;3.66;75.13
55070;BME280;40967;52.070;8.596;2023-05-03T03:29:30;101803.78;;;3.64;74.82
55070;BME280;40967;52.070;8.596;2023-05-03T03:31:56;101791.78;;;3.60;74.86
55070;BME280;40967;52.070;8.596;2023-05-03T03:34:22;101802.06;;;3.56;74.86
55070;BME280;40967;52.070;8.596;2023-05-03T03:36:47;101800.97;;;3.51;75.67
55070;BME280;40967;52.070;8.596;2023-05-03T03:39:12;101797.00;;;3.46;75.77
55070;BME280;40967;52.070;8.596;2023-05-03T03:41:38;101785.19;;;3.41;75.73
55070;BME280;40967;52.070;8.596;2023-05-03T03:44:03;101796.56;;;3.43;75.75
55070;BME280;40967;52.070;8.596;2023-05-03T03:46:29;101793.25;;;3.41;75.17
55070;BME280;40967;52.070;8.596;2023-05-03T03:48:54;101800.09;;;3.43;75.35
55070;BME280;40967;52.070;8.596;2023-05-03T03:51:20;101786.88;;;3.42;75.42
55070;BME280;40967;52.070;8.596;2023-05-03T03:53:45;101800.28;;;3.42;75.14
55070;BME280;40967;52.070;8.596;2023-05-03T03:56:11;101786.63;;;3.37;74.92
55070;BME280;40967;52.070;8.596;2023-05-03T03:58:36;101806.00;;;3.39;74.77
55070;BME280;40967;52.070;8.596;2023-05-03T04:01:02;101802.88;;;3.35;75.00
55070;BME280;40967;52.070;8.596;2023-05-03T04:03:27;101799.13;;;3.30;75.28
55070;BME280;40967;52.070;8.596;2023-05-03T04:05:53;101786.09;;;3.27;75.60
55070;BME280;40967;52.070;8.596;2023-05-03T04:08:18;101786.47;;;3.24;75.72
55070;BME280;40967;52.070;8.596;2023-05-03T04:10:44;101793.13;;;3.28;75.50
55070;BME280;40967;52.070;8.596;2023-05-03T04:13:09;101790.19;;;3.23;75.48
55070;BME280;40967;52.070;8.596;2023-05-03T04:15:35;101795.16;;;3.26;75.45
55070;BME280;40967;52.070;8.596;2023-05-03T04:18:00;101805.69;;;3.27;75.34
55070;BME280;40967;52.070;8.596;2023-05-03T04:20:26;101793.78;;;3.30;75.70
55070;BME280;40967;52.070;8.596;2023-05-03T04:22:51;101797.06;;;3.32;75.73
55070;BME280;40967;52.070;8.596;2023-05-03T04:25:17;101805.75;;;3.34;76.25
55070;BME280;40967;52.070;8.596;2023-05-03T04:27:44;101795.03;;;3.34;76.33
55070;BME280;40967;52.070;8.596;2023-05-03T04:30:10;101804.94;;;3.33;76.67
55070;BME280;40967;52.070;8.596;2023-05-03T04:32:37;101804.50;;;3.30;76.65
55070;BME280;40967;52.070;8.596;2023-05-03T04:35:05;101799.44;;;3.20;76.87
55070;BME280;40967;52.070;8.596;2023-05-03T04:37:34;101809.31;;;3.20;76.86
55070;BME280;40967;52.070;8.596;2023-05-03T04:39:59;101798.97;;;3.17;76.79
55070;BME280;40967;52.070;8.596;2023-05-03T04:42:26;101808.41;;;3.13;77.15
55070;BME280;40967;52.070;8.596;2023-05-03T04:44:52;101801.22;;;3.13;77.67
55070;BME280;40967;52.070;8.596;2023-05-03T04:47:17;101800.81;;;3.16;77.68
55070;BME280;40967;52.070;8.596;2023-05-03T04:49:43;101801.53;;;3.25;77.89
55070;BME280;40967;52.070;8.596;2023-05-03T04:52:12;101803.28;;;3.32;78.65
55070;BME280;40967;52.070;8.596;2023-05-03T04:54:38;101807.50;;;3.41;79.50
55070;BME280;40967;52.070;8.596;2023-05-03T04:57:06;101809.22;;;3.49;79.17
55070;BME280;40967;52.070;8.596;2023-05-03T04:59:34;101809.28;;;3.56;79.28
55070;BME280;40967;52.070;8.596;2023-05-03T05:02:00;101812.41;;;3.59;79.41
55070;BME280;40967;52.070;8.596;2023-05-03T05:04:25;101810.63;;;3.66;79.26
55070;BME280;40967;52.070;8.596;2023-05-03T05:06:52;101808.59;;;3.68;79.04
55070;BME280;40967;52.070;8.596;2023-05-03T05:09:27;101813.56;;;3.71;78.87
55070;BME280;40967;52.070;8.596;2023-05-03T05:11:53;101822.28;;;3.80;78.58
55070;BME280;40967;52.070;8.596;2023-05-03T05:14:19;101806.19;;;3.80;78.95
55070;BME280;40967;52.070;8.596;2023-05-03T05:16:45;101815.97;;;3.87;79.58
55070;BME280;40967;52.070;8.596;2023-05-03T05:19:11;101814.94;;;3.88;79.86
55070;BME280;40967;52.070;8.596;2023-05-03T05:21:37;101813.88;;;3.89;80.59
55070;BME280;40967;52.070;8.596;2023-05-03T05:24:03;101818.25;;;3.90;81.08
55070;BME280;40967;52.070;8.596;2023-05-03T05:26:29;101821.19;;;3.95;81.25
55070;BME280;40967;52.070;8.596;2023-05-03T05:28:54;101805.47;;;3.92;81.31
55070;BME280;40967;52.070;8.596;2023-05-03T05:31:20;101819.38;;;4.02;81.32
55070;BME280;40967;52.070;8.596;2023-05-03T05:33:46;101817.34;;;4.04;81.24
55070;BME280;40967;52.070;8.596;2023-05-03T05:36:11;101823.59;;;4.11;81.66
55070;BME280;40967;52.070;8.596;2023-05-03T05:38:36;101823.94;;;4.08;81.65
55070;BME280;40967;52.070;8.596;2023-05-03T05:41:03;101830.66;;;4.19;82.00
55070;BME280;40967;52.070;8.596;2023-05-03T05:43:28;101825.53;;;4.24;81.88
55070;BME280;40967;52.070;8.596;2023-05-03T05:45:54;101831.34;;;4.27;82.13
55070;BME280;40967;52.070;8.596;2023-05-03T05:48:19;101832.38;;;4.26;82.45
55070;BME280;40967;52.070;8.596;2023-05-03T05:50:45;101840.66;;;4.31;82.44
55070;BME280;40967;52.070;8.596;2023-05-03T05:53:10;101847.94;;;4.37;82.62
55070;BME280;40967;52.070;8.596;2023-05-03T05:55:36;101847.34;;;4.42;82.13
55070;BME280;40967;52.070;8.596;2023-05-03T05:58:02;101845.09;;;4.45;82.13
55070;BME280;40967;52.070;8.596;2023-05-03T06:00:28;101844.53;;;4.50;82.32
55070;BME280;40967;52.070;8.596;2023-05-03T06:02:54;101852.59;;;4.50;83.00
55070;BME280;40967;52.070;8.596;2023-05-03T06:05:20;101860.69;;;4.56;82.97
55070;BME280;40967;52.070;8.596;2023-05-03T06:07:45;101850.56;;;4.58;82.89
55070;BME280;40967;52.070;8.596;2023-05-03T06:10:11;101863.84;;;4.67;83.63
55070;BME280;40967;52.070;8.596;2023-05-03T06:12:36;101854.56;;;4.69;84.29
55070;BME280;40967;52.070;8.596;2023-05-03T06:15:03;101862.25;;;4.79;83.99
55070;BME280;40967;52.070;8.596;2023-05-03T06:17:28;101869.75;;;4.90;83.99
55070;BME280;40967;52.070;8.596;2023-05-03T06:19:53;101872.69;;;5.01;84.10
55070;BME280;40967;52.070;8.596;2023-05-03T06:22:19;101861.56;;;5.11;84.16
55070;BME280;40967;52.070;8.596;2023-05-03T06:24:45;101873.00;;;5.26;84.02
55070;BME280;40967;52.070;8.596;2023-05-03T06:27:10;101872.00;;;5.40;83.12
55070;BME280;40967;52.070;8.596;2023-05-03T06:29:36;101868.72;;;5.51;82.64
55070;BME280;40967;52.070;8.596;2023-05-03T06:32:01;101885.53;;;5.72;82.68
55070;BME280;40967;52.070;8.596;2023-05-03T06:34:28;101874.22;;;5.90;82.19
55070;BME280;40967;52.070;8.596;2023-05-03T06:36:54;101872.53;;;6.15;81.68
55070;BME280;40967;52.070;8.596;2023-05-03T06:39:19;101868.38;;;6.45;81.79
55070;BME280;40967;52.070;8.596;2023-05-03T06:41:44;101875.38;;;6.72;80.51
55070;BME280;40967;52.070;8.596;2023-05-03T06:44:10;101866.59;;;6.97;79.20
55070;BME280;40967;52.070;8.596;2023-05-03T06:46:35;101874.59;;;7.23;78.23
55070;BME280;40967;52.070;8.596;2023-05-03T06:49:01;101878.59;;;7.51;77.14
55070;BME280;40967;52.070;8.596;2023-05-03T06:51:28;101873.63;;;7.79;76.71
55070;BME280;40967;52.070;8.596;2023-05-03T06:53:55;101859.94;;;8.05;75.39
55070;BME280;40967;52.070;8.596;2023-05-03T06:56:21;101862.75;;;8.42;74.04
55070;BME280;40967;52.070;8.596;2023-05-03T06:58:47;101871.22;;;8.70;72.78
55070;BME280;40967;52.070;8.596;2023-05-03T07:01:12;101864.91;;;8.94;71.63
55070;BME280;40967;52.070;8.596;2023-05-03T07:03:38;101860.66;;;9.16;70.90
55070;BME280;40967;52.070;8.596;2023-05-03T07:06:04;101862.53;;;9.63;70.25
55070;BME280;40967;52.070;8.596;2023-05-03T07:08:29;101866.16;;;9.98;67.75
55070;BME280;40967;52.070;8.596;2023-05-03T07:10:56;101857.75;;;10.29;66.50
55070;BME280;40967;52.070;8.596;2023-05-03T07:13:21;101873.06;;;10.59;65.65
55070;BME280;40967;52.070;8.596;2023-05-03T07:15:47;101860.78;;;10.91;64.26
55070;BME280;40967;52.070;8.596;2023-05-03T07:18:12;101864.94;;;11.21;63.19
55070;BME280;40967;52.070;8.596;2023-05-03T07:20:38;101867.00;;;11.42;62.35
55070;BME280;40967;52.070;8.596;2023-05-03T07:23:03;101866.19;;;11.70;61.88
55070;BME280;40967;52.070;8.596;2023-05-03T07:25:33;101869.50;;;11.89;60.20
55070;BME280;40967;52.070;8.596;2023-05-03T07:27:59;101858.91;;;12.04;59.85
55070;BME280;40967;52.070;8.596;2023-05-03T07:30:24;101849.91;;;12.20;59.61
55070;BME280;40967;52.070;8.596;2023-05-03T07:32:50;101858.56;;;12.50;57.83
55070;BME280;40967;52.070;8.596;2023-05-03T07:35:15;101853.16;;;12.72;56.97
55070;BME280;40967;52.070;8.596;2023-05-03T07:37:41;101847.16;;;12.91;56.01
55070;BME280;40967;52.070;8.596;2023-05-03T07:40:08;101847.13;;;13.08;55.18
55070;BME280;40967;52.070;8.596;2023-05-03T07:42:34;101836.88;;;12.98;54.96
55070;BME280;40967;52.070;8.596;2023-05-03T07:45:00;101834.09;;;13.10;55.33
55070;BME280;40967;52.070;8.596;2023-05-03T07:47:26;101828.53;;;13.26;54.33
55070;BME280;40967;52.070;8.596;2023-05-03T07:49:52;101841.69;;;13.56;53.45
55070;BME280;40967;52.070;8.596;2023-05-03T07:52:18;101844.44;;;13.88;52.40
55070;BME280;40967;52.070;8.596;2023-05-03T07:54:43;101837.84;;;14.15;51.85
55070;BME280;40967;52.070;8.596;2023-05-03T07:57:11;101841.28;;;14.32;51.00
55070;BME280;40967;52.070;8.596;2023-05-03T07:59:37;101838.28;;;14.34;50.11
55070;BME280;40967;52.070;8.596;2023-05-03T08:02:03;101827.38;;;14.34;49.78
55070;BME280;40967;52.070;8.596;2023-05-03T08:04:28;101825.84;;;14.48;49.32
55070;BME280;40967;52.070;8.596;2023-05-03T08:06:54;101824.06;;;14.73;48.85
55070;BME280;40967;52.070;8.596;2023-05-03T08:09:19;101817.59;;;14.90;47.75
55070;BME280;40967;52.070;8.596;2023-05-03T08:11:45;101817.34;;;14.96;46.76
55070;BME280;40967;52.070;8.596;2023-05-03T08:14:10;101819.56;;;14.99;46.67
55070;BME280;40967;52.070;8.596;2023-05-03T08:16:36;101811.28;;;14.89;46.40
55070;BME280;40967;52.070;8.596;2023-05-03T08:19:02;101807.25;;;15.07;46.65
55070;BME280;40967;52.070;8.596;2023-05-03T08:21:29;101820.47;;;15.30;46.11
55070;BME280;40967;52.070;8.596;2023-05-03T08:23:55;101824.09;;;15.40;45.14
55070;BME280;40967;52.070;8.596;2023-05-03T08:26:20;101811.25;;;15.51;45.05
55070;BME280;40967;52.070;8.596;2023-05-03T08:28:49;101813.22;;;15.75;44.67
55070;BME280;40967;52.070;8.596;2023-05-03T08:31:15;101817.63;;;15.97;44.44
55070;BME280;40967;52.070;8.596;2023-05-03T08:33:40;101804.44;;;16.29;44.10
55070;BME280;40967;52.070;8.596;2023-05-03T08:36:06;101811.78;;;16.63;43.23
55070;BME280;40967;52.070;8.596;2023-05-03T08:38:32;101806.25;;;16.78;42.38
55070;BME280;40967;52.070;8.596;2023-05-03T08:41:03;101803.44;;;16.98;42.12
55070;BME280;40967;52.070;8.596;2023-05-03T08:43:37;101807.78;;;17.10;41.77
55070;BME280;40967;52.070;8.596;2023-05-03T08:46:10;101805.78;;;17.20;41.25
55070;BME280;40967;52.070;8.596;2023-05-03T08:48:36;101803.50;;;17.42;41.04
55070;BME280;40967;52.070;8.596;2023-05-03T08:51:03;101801.47;;;17.63;40.84
55070;BME280;40967;52.070;8.596;2023-05-03T08:53:29;101802.38;;;17.87;40.07
55070;BME280;40967;52.070;8.596;2023-05-03T08:55:54;101804.19;;;18.01;39.01
55070;BME280;40967;52.070;8.596;2023-05-03T08:58:20;101807.66;;;18.12;38.83
55070;BME280;40967;52.070;8.596;2023-05-03T09:00:45;101802.41;;;18.16;39.15
55070;BME280;40967;52.070;8.596;2023-05-03T09:03:11;101798.44;;;18.27;39.09
55070;BME280;40967;52.070;8.596;2023-05-03T09:05:36;101797.09;;;18.53;38.37
55070;BME280;40967;52.070;8.596;2023-05-03T09:08:09;101808.56;;;18.60;38.38
55070;BME280;40967;52.070;8.596;2023-05-03T09:10:39;101802.41;;;18.68;37.85
55070;BME280;40967;52.070;8.596;2023-05-03T09:13:06;101807.28;;;18.76;37.62
55070;BME280;40967;52.070;8.596;2023-05-03T09:15:32;101814.72;;;18.99;37.38
55070;BME280;40967;52.070;8.596;2023-05-03T09:18:24;101809.69;;;19.06;36.51
55070;BME280;40967;52.070;8.596;2023-05-03T09:20:54;101808.78;;;19.10;36.38
55070;BME280;40967;52.070;8.596;2023-05-03T09:25:51;101802.47;;;19.10;36.67
55070;BME280;40967;52.070;8.596;2023-05-03T09:28:18;101795.03;;;19.29;36.32
55070;BME280;40967;52.070;8.596;2023-05-03T09:30:44;101804.69;;;19.50;35.77
55070;BME280;40967;52.070;8.596;2023-05-03T09:33:11;101808.78;;;19.53;35.48
55070;BME280;40967;52.070;8.596;2023-05-03T09:35:55;101799.25;;;19.64;35.00
55070;BME280;40967;52.070;8.596;2023-05-03T09:38:32;101801.25;;;19.58;35.22
55070;BME280;40967;52.070;8.596;2023-05-03T09:40:59;101797.09;;;19.61;35.11
55070;BME280;40967;52.070;8.596;2023-05-03T09:43:25;101801.47;;;19.80;35.02
55070;BME280;40967;52.070;8.596;2023-05-03T09:45:51;101801.16;;;20.14;34.61
55070;BME280;40967;52.070;8.596;2023-05-03T09:48:16;101807.19;;;20.35;34.02
55070;BME280;40967;52.070;8.596;2023-05-03T09:50:47;101799.66;;;20.54;34.00
55070;BME280;40967;52.070;8.596;2023-05-03T09:53:14;101790.25;;;20.41;33.02
55070;BME280;40967;52.070;8.596;2023-05-03T09:55:42;101795.31;;;19.70;33.98
55070;BME280;40967;52.070;8.596;2023-05-03T09:58:08;101792.03;;;19.49;34.89
55070;BME280;40967;52.070;8.596;2023-05-03T10:00:40;101785.84;;;19.57;35.11
55070;BME280;40967;52.070;8.596;2023-05-03T10:03:11;101788.94;;;19.88;34.41
55070;BME280;40967;52.070;8.596;2023-05-03T10:05:56;101777.06;;;20.06;34.20
55070;BME280;40967;52.070;8.596;2023-05-03T10:08:34;101776.34;;;20.46;33.72
55070;BME280;40967;52.070;8.596;2023-05-03T10:11:07;101773.00;;;20.76;32.78
55070;BME280;40967;52.070;8.596;2023-05-03T10:13:32;101771.34;;;20.89;32.23
55070;BME280;40967;52.070;8.596;2023-05-03T10:16:05;101768.06;;;20.73;32.34
55070;BME280;40967;52.070;8.596;2023-05-03T10:18:32;101756.25;;;20.73;32.70
55070;BME280;40967;52.070;8.596;2023-05-03T10:21:05;101759.91;;;20.82;32.21
55070;BME280;40967;52.070;8.596;2023-05-03T10:23:31;101757.94;;;20.96;32.08
55070;BME280;40967;52.070;8.596;2023-05-03T10:28:35;101755.78;;;21.20;32.15
55070;BME280;40967;52.070;8.596;2023-05-03T10:31:01;101755.06;;;21.28;31.80
55070;BME280;40967;52.070;8.596;2023-05-03T10:33:28;101761.84;;;20.68;32.33
55070;BME280;40967;52.070;8.596;2023-05-03T10:35:56;101764.81;;;20.58;32.79
55070;BME280;40967;52.070;8.596;2023-05-03T10:38:23;101757.97;;;20.69;32.68
55070;BME280;40967;52.070;8.596;2023-05-03T10:40:49;101755.31;;;20.64;33.09
55070;BME280;40967;52.070;8.596;2023-05-03T10:43:41;101753.16;;;20.88;32.89
55070;BME280;40967;52.070;8.596;2023-05-03T10:46:08;101754.38;;;21.09;32.62
55070;BME280;40967;52.070;8.596;2023-05-03T10:49:15;101754.00;;;21.37;32.67
55070;BME280;40967;52.070;8.596;2023-05-03T10:51:41;101750.81;;;21.66;32.19
55070;BME280;40967;52.070;8.596;2023-05-03T10:54:08;101748.44;;;21.95;31.54
55070;BME280;40967;52.070;8.596;2023-05-03T10:56:46;101755.44;;;22.23;30.83
55070;BME280;40967;52.070;8.596;2023-05-03T10:59:12;101753.25;;;22.42;30.46
55070;BME280;40967;52.070;8.596;2023-05-03T11:01:37;101757.50;;;22.48;30.05
55070;BME280;40967;52.070;8.596;2023-05-03T11:04:07;101746.22;;;22.36;30.06
55070;BME280;40967;52.070;8.596;2023-05-03T11:06:36;101744.25;;;22.28;30.12
55070;BME280;40967;52.070;8.596;2023-05-03T11:09:07;101745.38;;;22.27;29.98
55070;BME280;40967;52.070;8.596;2023-05-03T11:11:35;101746.00;;;22.24;30.32
55070;BME280;40967;52.070;8.596;2023-05-03T11:14:00;101739.41;;;22.34;30.16
55070;BME280;40967;52.070;8.596;2023-05-03T11:16:26;101733.41;;;22.40;29.96
55070;BME280;40967;52.070;8.596;2023-05-03T11:18:52;101721.19;;;22.41;29.89
55070;BME280;40967;52.070;8.596;2023-05-03T11:21:22;101716.00;;;22.48;29.62
55070;BME280;40967;52.070;8.596;2023-05-03T11:23:47;101717.66;;;22.49;29.59
55070;BME280;40967;52.070;8.596;2023-05-03T11:26:13;101706.75;;;22.44;29.76
55070;BME280;40967;52.070;8.596;2023-05-03T11:28:42;101707.34;;;22.41;29.85
55070;BME280;40967;52.070;8.596;2023-05-03T11:31:08;101704.38;;;22.29;30.34
55070;BME280;40967;52.070;8.596;2023-05-03T11:33:38;101700.50;;;22.00;30.28
55070;BME280;40967;52.070;8.596;2023-05-03T11:36:04;101709.66;;;21.56;31.16
55070;BME280;40967;52.070;8.596;2023-05-03T11:38:35;101703.34;;;21.64;31.26
55070;BME280;40967;52.070;8.596;2023-05-03T11:41:10;101700.13;;;21.93;31.06
55070;BME280;40967;52.070;8.596;2023-05-03T11:43:41;101694.53;;;22.06;30.76
55070;BME280;40967;52.070;8.596;2023-05-03T11:46:12;101695.63;;;22.27;30.21
55070;BME280;40967;52.070;8.596;2023-05-03T11:48:39;101697.78;;;22.39;30.00
55070;BME280;40967;52.070;8.596;2023-05-03T11:51:08;101691.25;;;22.35;30.09
55070;BME280;40967;52.070;8.596;2023-05-03T11:53:37;101701.81;;;22.41;30.23
55070;BME280;40967;52.070;8.596;2023-05-03T11:56:06;101686.03;;;22.33;29.70
55070;BME280;40967;52.070;8.596;2023-05-03T11:58:34;101691.75;;;22.37;29.87
55070;BME280;40967;52.070;8.596;2023-05-03T12:00:59;101692.34;;;22.25;29.88
55070;BME280;40967;52.070;8.596;2023-05-03T12:03:27;101690.91;;;21.97;30.28
55070;BME280;40967;52.070;8.596;2023-05-03T12:05:53;101681.94;;;21.92;30.32
55070;BME280;40967;52.070;8.596;2023-05-03T12:08:20;101687.41;;;22.14;30.31
55070;BME280;40967;52.070;8.596;2023-05-03T12:10:47;101697.41;;;22.32;29.88
55070;BME280;40967;52.070;8.596;2023-05-03T12:13:31;101698.13;;;22.46;29.91
55070;BME280;40967;52.070;8.596;2023-05-03T12:15:59;101683.81;;;22.52;29.55
55070;BME280;40967;52.070;8.596;2023-05-03T12:18:26;101682.44;;;22.64;29.20
55070;BME280;40967;52.070;8.596;2023-05-03T12:20:56;101691.84;;;22.71;29.46
55070;BME280;40967;52.070;8.596;2023-05-03T12:23:23;101689.34;;;22.52;29.23
55070;BME280;40967;52.070;8.596;2023-05-03T12:25:49;101685.97;;;22.16;29.80
55070;BME280;40967;52.070;8.596;2023-05-03T12:28:16;101674.44;;;22.23;29.26
55070;BME280;40967;52.070;8.596;2023-05-03T12:30:42;101689.16;;;22.40;29.25
55070;BME280;40967;52.070;8.596;2023-05-03T12:33:08;101685.81;;;22.61;29.28
55070;BME280;40967;52.070;8.596;2023-05-03T12:35:34;101685.50;;;22.62;29.22
55070;BME280;40967;52.070;8.596;2023-05-03T12:38:00;101677.59;;;22.47;29.13
55070;BME280;40967;52.070;8.596;2023-05-03T12:40:28;101681.19;;;22.47;29.14
55070;BME280;40967;52.070;8.596;2023-05-03T12:42:54;101666.63;;;22.64;28.58
55070;BME280;40967;52.070;8.596;2023-05-03T12:45:20;101667.75;;;22.63;28.28
55070;BME280;40967;52.070;8.596;2023-05-03T12:47:46;101659.28;;;22.60;28.51
55070;BME280;40967;52.070;8.596;2023-05-03T12:50:11;101672.44;;;22.06;28.64
55070;BME280;40967;52.070;8.596;2023-05-03T12:52:37;101666.56;;;21.55;29.52
55070;BME280;40967;52.070;8.596;2023-05-03T12:55:05;101664.53;;;21.38;30.17
55070;BME280;40967;52.070;8.596;2023-05-03T12:57:34;101661.19;;;21.50;30.19
55070;BME280;40967;52.070;8.596;2023-05-03T13:00:00;101659.28;;;21.81;29.75
55070;BME280;40967;52.070;8.596;2023-05-03T13:02:26;101652.72;;;21.99;29.03
55070;BME280;40967;52.070;8.596;2023-05-03T13:04:51;101656.22;;;22.22;29.38
55070;BME280;40967;52.070;8.596;2023-05-03T13:07:24;101650.59;;;22.44;29.32
55070;BME280;40967;52.070;8.596;2023-05-03T13:09:53;101652.00;;;22.64;29.29